sensor_id;sensor_type;location;lat;lon;timestamp;P1;durP1;ratioP1;P2;durP2;ratioP2
22064;SDS011;11197;53.110;8.468;2023-05-19T00:01:08;8.15;;;4.07;;
22064;SDS011;11197;53.110;8.468;2023-05-19T00:03:35;8.57;;;4.10;;
22064;SDS011;11197;53.110;8.468;2023-05-19T00:06:05;8.10;;;4.30;;
22064;SDS011;11197;53.110;8.468;2023-05-19T00:08:34;10.23;;;4.35;;
22064;SDS011;11197;53.110;8.468;2023-05-19T00:11:02;9.02;;;4.05;;
22064;SDS011;11197;53.110;8.468;2023-05-19T00:13:29;8.23;;;4.35;;
22064;SDS011;11197;53.110;8.468;2023-05-19T00:15:55;9.68;;;4.53;;
22064;SDS011;11197;53.110;8.468;2023-05-19T00:18:21;9.05;;;3.95;;
22064;SDS011;11197;53.110;8.468;2023-05-19T00:20:47;9.32;;;4.72;;
22064;SDS011;11197;53.110;8.468;2023-05-19T00:23:13;10.57;;;4.10;;
22064;SDS011;11197;53.110;8.468;2023-05-19T00:25:39;7.78;;;3.63;;
22064;SDS011;11197;53.110;8.468;2023-05-19T00:28:05;7.55;;;4.20;;
22064;SDS011;11197;53.110;8.468;2023-05-19T00:30:31;8.50;;;3.95;;
22064;SDS011;11197;53.110;8.468;2023-05-19T00:32:56;9.73;;;4.00;;
22064;SDS011;11197;53.110;8.468;2023-05-19T00:35:22;10.27;;;4.28;;
22064;SDS011;11197;53.110;8.468;2023-05-19T00:37:49;9.85;;;4.18;;
22064;SDS011;11197;53.110;8.468;2023-05-19T00:40:15;7.85;;;4.30;;
22064;SDS011;11197;53.110;8.468;2023-05-19T00:42:41;9.95;;;4.20;;
22064;SDS011;11197;53.110;8.468;2023-05-19T00:45:10;10.68;;;4.63;;
22064;SDS011;11197;53.110;8.468;2023-05-19T00:47:36;11.40;;;5.03;;
22064;SDS011;11197;53.110;8.468;2023-05-19T00:50:01;10.05;;;4.80;;
22064;SDS011;11197;53.110;8.468;2023-05-19T00:52:27;12.25;;;4.80;;
22064;SDS011;11197;53.110;8.468;2023-05-19T00:54:53;9.38;;;4.50;;
22064;SDS011;11197;53.110;8.468;2023-05-19T00:57:23;10.18;;;4.85;;
22064;SDS011;11197;53.110;8.468;2023-05-19T00:59:51;9.48;;;4.60;;
22064;SDS011;11197;53.110;8.468;2023-05-19T01:02:17;10.65;;;4.88;;
22064;SDS011;11197;53.110;8.468;2023-05-19T01:04:43;8.05;;;4.30;;
22064;SDS011;11197;53.110;8.468;2023-05-19T01:07:12;7.78;;;4.35;;
22064;SDS011;11197;53.110;8.468;2023-05-19T01:09:39;8.30;;;4.45;;
22064;SDS011;11197;53.110;8.468;2023-05-19T01:12:07;9.55;;;4.45;;
22064;SDS011;11197;53.110;8.468;2023-05-19T01:14:33;9.05;;;4.40;;
22064;SDS011;11197;53.110;8.468;2023-05-19T01:19:59;6.80;;;4.18;;
22064;SDS011;11197;53.110;8.468;2023-05-19T01:22:53;7.57;;;4.70;;
22064;SDS011;11197;53.110;8.468;2023-05-19T01:26:15;9.45;;;4.85;;
22064;SDS011;11197;53.110;8.468;2023-05-19T01:28:49;9.23;;;4.65;;
22064;SDS011;11197;53.110;8.468;2023-05-19T01:31:21;7.55;;;4.28;;
22064;SDS011;11197;53.110;8.468;2023-05-19T01:33:50;9.45;;;4.53;;
22064;SDS011;11197;53.110;8.468;2023-05-19T01:36:18;8.85;;;4.38;;
22064;SDS011;11197;53.110;8.468;2023-05-19T01:38:46;8.98;;;4.60;;
22064;SDS011;11197;53.110;8.468;2023-05-19T01:41:18;8.63;;;4.93;;
22064;SDS011;11197;53.110;8.468;2023-05-19T01:43:46;7.40;;;4.38;;
22064;SDS011;11197;53.110;8.468;2023-05-19T01:46:14;9.05;;;5.00;;
22064;SDS011;11197;53.110;8.468;2023-05-19T01:48:41;8.23;;;4.88;;
22064;SDS011;11197;53.110;8.468;2023-05-19T01:51:08;7.95;;;4.65;;
22064;SDS011;11197;53.110;8.468;2023-05-19T01:53:34;9.82;;;4.47;;
22064;SDS011;11197;53.110;8.468;2023-05-19T01:56:00;7.68;;;4.55;;
22064;SDS011;11197;53.110;8.468;2023-05-19T01:58:31;7.45;;;4.70;;
22064;SDS011;11197;53.110;8.468;2023-05-19T02:01:26;7.80;;;4.57;;
22064;SDS011;11197;53.110;8.468;2023-05-19T02:04:08;9.35;;;4.97;;
22064;SDS011;11197;53.110;8.468;2023-05-19T02:07:04;8.82;;;4.00;;
22064;SDS011;11197;53.110;8.468;2023-05-19T02:09:40;7.55;;;4.30;;
22064;SDS011;11197;53.110;8.468;2023-05-19T02:12:19;8.63;;;4.68;;
22064;SDS011;11197;53.110;8.468;2023-05-19T02:15:00;8.68;;;4.35;;
22064;SDS011;11197;53.110;8.468;2023-05-19T02:17:28;4.95;;;3.78;;
22064;SDS011;11197;53.110;8.468;2023-05-19T02:20:00;7.68;;;4.70;;
22064;SDS011;11197;53.110;8.468;2023-05-19T02:22:29;7.57;;;4.32;;
22064;SDS011;11197;53.110;8.468;2023-05-19T02:24:55;7.25;;;4.05;;
22064;SDS011;11197;53.110;8.468;2023-05-19T02:27:22;8.65;;;4.25;;
22064;SDS011;11197;53.110;8.468;2023-05-19T02:29:48;6.30;;;4.38;;
22064;SDS011;11197;53.110;8.468;2023-05-19T02:32:14;7.70;;;4.50;;
22064;SDS011;11197;53.110;8.468;2023-05-19T02:34:40;7.15;;;4.28;;
22064;SDS011;11197;53.110;8.468;2023-05-19T02:37:13;8.18;;;4.65;;
22064;SDS011;11197;53.110;8.468;2023-05-19T02:39:40;8.47;;;4.20;;
22064;SDS011;11197;53.110;8.468;2023-05-19T02:42:06;8.00;;;4.63;;
22064;SDS011;11197;53.110;8.468;2023-05-19T02:44:32;6.53;;;4.10;;
22064;SDS011;11197;53.110;8.468;2023-05-19T02:46:58;6.95;;;4.25;;
22064;SDS011;11197;53.110;8.468;2023-05-19T02:49:23;6.57;;;4.18;;
22064;SDS011;11197;53.110;8.468;2023-05-19T02:51:49;6.00;;;3.42;;
22064;SDS011;11197;53.110;8.468;2023-05-19T02:54:15;8.10;;;4.40;;
22064;SDS011;11197;53.110;8.468;2023-05-19T02:56:41;7.93;;;3.97;;
22064;SDS011;11197;53.110;8.468;2023-05-19T02:59:07;10.00;;;4.95;;
22064;SDS011;11197;53.110;8.468;2023-05-19T03:01:33;7.75;;;4.60;;
22064;SDS011;11197;53.110;8.468;2023-05-19T03:03:59;6.40;;;4.28;;
22064;SDS011;11197;53.110;8.468;2023-05-19T03:06:25;6.28;;;4.10;;
22064;SDS011;11197;53.110;8.468;2023-05-19T03:08:50;7.18;;;4.00;;
22064;SDS011;11197;53.110;8.468;2023-05-19T03:11:16;7.45;;;4.47;;
22064;SDS011;11197;53.110;8.468;2023-05-19T03:13:42;7.45;;;4.10;;
22064;SDS011;11197;53.110;8.468;2023-05-19T03:16:08;7.20;;;4.22;;
22064;SDS011;11197;53.110;8.468;2023-05-19T03:18:34;7.95;;;4.40;;
22064;SDS011;11197;53.110;8.468;2023-05-19T03:21:00;6.90;;;4.13;;
22064;SDS011;11197;53.110;8.468;2023-05-19T03:23:26;7.25;;;4.60;;
22064;SDS011;11197;53.110;8.468;2023-05-19T03:25:52;7.90;;;4.55;;
22064;SDS011;11197;53.110;8.468;2023-05-19T03:28:19;7.35;;;4.55;;
22064;SDS011;11197;53.110;8.468;2023-05-19T03:30:45;6.80;;;4.30;;
22064;SDS011;11197;53.110;8.468;2023-05-19T03:33:17;8.40;;;4.70;;
22064;SDS011;11197;53.110;8.468;2023-05-19T03:35:43;8.45;;;4.15;;
22064;SDS011;11197;53.110;8.468;2023-05-19T03:38:09;7.40;;;4.22;;
22064;SDS011;11197;53.110;8.468;2023-05-19T03:40:35;6.57;;;4.30;;
22064;SDS011;11197;53.110;8.468;2023-05-19T03:43:06;6.88;;;4.50;;
22064;SDS011;11197;53.110;8.468;2023-05-19T03:45:39;7.15;;;4.20;;
22064;SDS011;11197;53.110;8.468;2023-05-19T03:48:25;6.95;;;4.28;;
22064;SDS011;11197;53.110;8.468;2023-05-19T03:51:11;8.25;;;4.10;;
22064;SDS011;11197;53.110;8.468;2023-05-19T03:53:37;7.22;;;4.25;;
22064;SDS011;11197;53.110;8.468;2023-05-19T03:56:03;6.20;;;4.32;;
22064;SDS011;11197;53.110;8.468;2023-05-19T03:58:32;7.72;;;4.45;;
22064;SDS011;11197;53.110;8.468;2023-05-19T04:01:00;8.63;;;4.47;;
22064;SDS011;11197;53.110;8.468;2023-05-19T04:03:26;9.77;;;4.80;;
22064;SDS011;11197;53.110;8.468;2023-05-19T04:05:52;7.10;;;4.53;;
22064;SDS011;11197;53.110;8.468;2023-05-19T04:08:19;8.40;;;4.75;;
22064;SDS011;11197;53.110;8.468;2023-05-19T04:10:44;7.65;;;4.60;;
22064;SDS011;11197;53.110;8.468;2023-05-19T04:13:12;9.27;;;5.18;;
22064;SDS011;11197;53.110;8.468;2023-05-19T04:15:38;6.88;;;4.53;;
22064;SDS011;11197;53.110;8.468;2023-05-19T04:18:05;9.43;;;4.90;;
22064;SDS011;11197;53.110;8.468;2023-05-19T04:20:31;9.48;;;4.88;;
22064;SDS011;11197;53.110;8.468;2023-05-19T04:22:57;8.25;;;4.93;;
22064;SDS011;11197;53.110;8.468;2023-05-19T04:25:23;7.78;;;4.68;;
22064;SDS011;11197;53.110;8.468;2023-05-19T04:27:49;8.95;;;4.95;;
22064;SDS011;11197;53.110;8.468;2023-05-19T04:30:17;7.85;;;4.55;;
22064;SDS011;11197;53.110;8.468;2023-05-19T04:32:47;7.90;;;4.65;;
22064;SDS011;11197;53.110;8.468;2023-05-19T04:35:15;7.90;;;5.22;;
22064;SDS011;11197;53.110;8.468;2023-05-19T04:37:43;8.27;;;4.82;;
22064;SDS011;11197;53.110;8.468;2023-05-19T04:40:15;7.60;;;4.80;;
22064;SDS011;11197;53.110;8.468;2023-05-19T04:42:41;8.88;;;5.00;;
22064;SDS011;11197;53.110;8.468;2023-05-19T04:45:14;7.95;;;4.70;;
22064;SDS011;11197;53.110;8.468;2023-05-19T04:47:43;7.40;;;4.90;;
22064;SDS011;11197;53.110;8.468;2023-05-19T04:50:12;8.25;;;4.63;;
22064;SDS011;11197;53.110;8.468;2023-05-19T04:52:39;7.55;;;5.00;;
22064;SDS011;11197;53.110;8.468;2023-05-19T04:55:06;8.40;;;5.13;;
22064;SDS011;11197;53.110;8.468;2023-05-19T04:57:33;8.05;;;5.03;;
22064;SDS011;11197;53.110;8.468;2023-05-19T05:00:00;8.90;;;5.30;;
22064;SDS011;11197;53.110;8.468;2023-05-19T05:02:32;8.40;;;4.70;;
22064;SDS011;11197;53.110;8.468;2023-05-19T05:04:59;7.97;;;5.50;;
22064;SDS011;11197;53.110;8.468;2023-05-19T05:07:24;9.18;;;5.38;;
22064;SDS011;11197;53.110;8.468;2023-05-19T05:09:51;7.95;;;4.82;;
22064;SDS011;11197;53.110;8.468;2023-05-19T05:12:17;8.23;;;5.10;;
22064;SDS011;11197;53.110;8.468;2023-05-19T05:14:45;9.27;;;5.13;;
22064;SDS011;11197;53.110;8.468;2023-05-19T05:17:11;9.93;;;5.30;;
22064;SDS011;11197;53.110;8.468;2023-05-19T05:19:38;8.02;;;5.00;;
22064;SDS011;11197;53.110;8.468;2023-05-19T05:22:05;9.63;;;4.95;;
22064;SDS011;11197;53.110;8.468;2023-05-19T05:24:33;9.30;;;5.32;;
22064;SDS011;11197;53.110;8.468;2023-05-19T05:27:05;10.82;;;5.20;;
22064;SDS011;11197;53.110;8.468;2023-05-19T05:29:35;8.85;;;5.10;;
22064;SDS011;11197;53.110;8.468;2023-05-19T05:32:03;12.40;;;5.70;;
22064;SDS011;11197;53.110;8.468;2023-05-19T05:34:29;14.05;;;5.80;;
22064;SDS011;11197;53.110;8.468;2023-05-19T05:36:56;8.90;;;5.22;;
22064;SDS011;11197;53.110;8.468;2023-05-19T05:39:22;9.73;;;5.70;;
22064;SDS011;11197;53.110;8.468;2023-05-19T05:41:48;14.60;;;6.20;;
22064;SDS011;11197;53.110;8.468;2023-05-19T05:44:15;8.38;;;5.35;;
22064;SDS011;11197;53.110;8.468;2023-05-19T05:46:42;8.95;;;5.78;;
22064;SDS011;11197;53.110;8.468;2023-05-19T05:49:08;9.65;;;5.30;;
22064;SDS011;11197;53.110;8.468;2023-05-19T05:51:40;10.52;;;6.53;;
22064;SDS011;11197;53.110;8.468;2023-05-19T05:54:07;12.23;;;6.18;;
22064;SDS011;11197;53.110;8.468;2023-05-19T05:56:41;12.68;;;6.30;;
22064;SDS011;11197;53.110;8.468;2023-05-19T05:59:08;14.02;;;5.90;;
22064;SDS011;11197;53.110;8.468;2023-05-19T06:01:34;10.13;;;6.00;;
22064;SDS011;11197;53.110;8.468;2023-05-19T06:04:01;13.15;;;5.60;;
22064;SDS011;11197;53.110;8.468;2023-05-19T06:06:28;13.25;;;6.18;;
22064;SDS011;11197;53.110;8.468;2023-05-19T06:08:55;10.73;;;5.55;;
22064;SDS011;11197;53.110;8.468;2023-05-19T06:11:23;13.48;;;5.47;;
22064;SDS011;11197;53.110;8.468;2023-05-19T06:13:50;12.50;;;6.15;;
22064;SDS011;11197;53.110;8.468;2023-05-19T06:16:34;9.35;;;6.03;;
22064;SDS011;11197;53.110;8.468;2023-05-19T06:19:00;13.70;;;6.85;;
22064;SDS011;11197;53.110;8.468;2023-05-19T06:21:26;15.35;;;7.53;;
22064;SDS011;11197;53.110;8.468;2023-05-19T06:23:51;16.90;;;6.95;;
22064;SDS011;11197;53.110;8.468;2023-05-19T06:26:18;19.33;;;6.95;;
22064;SDS011;11197;53.110;8.468;2023-05-19T06:28:44;13.93;;;6.53;;
22064;SDS011;11197;53.110;8.468;2023-05-19T06:31:10;13.15;;;6.72;;
22064;SDS011;11197;53.110;8.468;2023-05-19T06:33:43;14.25;;;6.50;;
22064;SDS011;11197;53.110;8.468;2023-05-19T06:36:08;13.95;;;6.35;;
22064;SDS011;11197;53.110;8.468;2023-05-19T06:38:36;14.52;;;6.53;;
22064;SDS011;11197;53.110;8.468;2023-05-19T06:41:02;12.63;;;6.10;;
22064;SDS011;11197;53.110;8.468;2023-05-19T06:43:28;14.38;;;6.10;;
22064;SDS011;11197;53.110;8.468;2023-05-19T06:45:57;15.88;;;6.43;;
22064;SDS011;11197;53.110;8.468;2023-05-19T06:48:24;15.15;;;6.75;;
22064;SDS011;11197;53.110;8.468;2023-05-19T06:50:50;13.93;;;6.70;;
22064;SDS011;11197;53.110;8.468;2023-05-19T06:53:18;14.70;;;7.30;;
22064;SDS011;11197;53.110;8.468;2023-05-19T06:55:45;15.85;;;6.35;;
22064;SDS011;11197;53.110;8.468;2023-05-19T06:58:15;15.35;;;6.05;;
22064;SDS011;11197;53.110;8.468;2023-05-19T07:00:41;15.27;;;6.97;;
22064;SDS011;11197;53.110;8.468;2023-05-19T07:03:09;14.57;;;6.43;;
22064;SDS011;11197;53.110;8.468;2023-05-19T07:05:36;15.13;;;6.32;;
22064;SDS011;11197;53.110;8.468;2023-05-19T07:08:03;15.13;;;6.72;;
22064;SDS011;11197;53.110;8.468;2023-05-19T07:10:30;14.38;;;6.65;;
22064;SDS011;11197;53.110;8.468;2023-05-19T07:12:56;18.17;;;6.95;;
22064;SDS011;11197;53.110;8.468;2023-05-19T07:15:25;21.10;;;6.85;;
22064;SDS011;11197;53.110;8.468;2023-05-19T07:17:52;15.82;;;6.10;;
22064;SDS011;11197;53.110;8.468;2023-05-19T07:20:18;14.10;;;6.38;;
22064;SDS011;11197;53.110;8.468;2023-05-19T07:22:44;12.80;;;5.90;;
22064;SDS011;11197;53.110;8.468;2023-05-19T07:25:10;14.35;;;6.28;;
22064;SDS011;11197;53.110;8.468;2023-05-19T07:27:35;17.80;;;6.85;;
22064;SDS011;11197;53.110;8.468;2023-05-19T07:30:02;16.50;;;6.90;;
22064;SDS011;11197;53.110;8.468;2023-05-19T07:32:28;16.50;;;6.22;;
22064;SDS011;11197;53.110;8.468;2023-05-19T07:34:54;17.20;;;6.93;;
22064;SDS011;11197;53.110;8.468;2023-05-19T07:37:20;19.30;;;7.80;;
22064;SDS011;11197;53.110;8.468;2023-05-19T07:39:46;20.00;;;7.90;;
22064;SDS011;11197;53.110;8.468;2023-05-19T07:42:12;20.52;;;6.63;;
22064;SDS011;11197;53.110;8.468;2023-05-19T07:44:37;16.67;;;5.82;;
22064;SDS011;11197;53.110;8.468;2023-05-19T07:47:04;15.80;;;5.25;;
22064;SDS011;11197;53.110;8.468;2023-05-19T07:49:29;15.75;;;5.22;;
22064;SDS011;11197;53.110;8.468;2023-05-19T07:51:55;15.48;;;4.65;;
22064;SDS011;11197;53.110;8.468;2023-05-19T07:54:21;13.00;;;4.55;;
22064;SDS011;11197;53.110;8.468;2023-05-19T07:56:47;13.30;;;4.70;;
22064;SDS011;11197;53.110;8.468;2023-05-19T07:59:13;21.70;;;4.68;;
22064;SDS011;11197;53.110;8.468;2023-05-19T08:01:41;15.93;;;5.15;;
22064;SDS011;11197;53.110;8.468;2023-05-19T08:04:06;17.15;;;4.90;;
22064;SDS011;11197;53.110;8.468;2023-05-19T08:06:32;11.93;;;5.03;;
22064;SDS011;11197;53.110;8.468;2023-05-19T08:08:59;13.32;;;5.05;;
22064;SDS011;11197;53.110;8.468;2023-05-19T08:11:25;17.48;;;5.30;;
22064;SDS011;11197;53.110;8.468;2023-05-19T08:13:51;15.82;;;5.68;;
22064;SDS011;11197;53.110;8.468;2023-05-19T08:16:17;15.65;;;5.75;;
22064;SDS011;11197;53.110;8.468;2023-05-19T08:18:43;18.38;;;5.72;;
22064;SDS011;11197;53.110;8.468;2023-05-19T08:21:09;18.58;;;5.70;;
22064;SDS011;11197;53.110;8.468;2023-05-19T08:23:34;20.70;;;6.75;;
22064;SDS011;11197;53.110;8.468;2023-05-19T08:26:01;22.65;;;6.28;;
22064;SDS011;11197;53.110;8.468;2023-05-19T08:28:27;18.23;;;6.35;;
22064;SDS011;11197;53.110;8.468;2023-05-19T08:30:53;19.10;;;6.72;;
22064;SDS011;11197;53.110;8.468;2023-05-19T08:33:19;16.58;;;6.18;;
22064;SDS011;11197;53.110;8.468;2023-05-19T08:35:46;16.52;;;6.15;;
22064;SDS011;11197;53.110;8.468;2023-05-19T08:38:11;19.65;;;7.65;;
22064;SDS011;11197;53.110;8.468;2023-05-19T08:40:40;15.65;;;7.30;;
22064;SDS011;11197;53.110;8.468;2023-05-19T08:43:06;18.33;;;7.65;;
22064;SDS011;11197;53.110;8.468;2023-05-19T08:45:33;18.75;;;7.60;;
22064;SDS011;11197;53.110;8.468;2023-05-19T08:47:59;21.40;;;7.90;;
22064;SDS011;11197;53.110;8.468;2023-05-19T08:50:28;16.70;;;6.60;;
22064;SDS011;11197;53.110;8.468;2023-05-19T08:53:12;17.38;;;7.38;;
22064;SDS011;11197;53.110;8.468;2023-05-19T08:55:52;15.05;;;5.72;;
22064;SDS011;11197;53.110;8.468;2023-05-19T08:58:25;15.00;;;5.22;;
22064;SDS011;11197;53.110;8.468;2023-05-19T09:00:52;11.93;;;4.40;;
22064;SDS011;11197;53.110;8.468;2023-05-19T09:03:21;11.77;;;4.45;;
22064;SDS011;11197;53.110;8.468;2023-05-19T09:05:50;9.85;;;3.53;;
22064;SDS011;11197;53.110;8.468;2023-05-19T09:08:16;7.93;;;2.90;;
22064;SDS011;11197;53.110;8.468;2023-05-19T09:10:42;10.93;;;3.25;;
22064;SDS011;11197;53.110;8.468;2023-05-19T09:13:08;11.73;;;3.42;;
22064;SDS011;11197;53.110;8.468;2023-05-19T09:15:34;7.68;;;2.92;;
22064;SDS011;11197;53.110;8.468;2023-05-19T09:18:07;14.65;;;3.42;;
22064;SDS011;11197;53.110;8.468;2023-05-19T09:21:16;10.00;;;3.00;;
22064;SDS011;11197;53.110;8.468;2023-05-19T09:23:27;8.50;;;3.00;;
22064;SDS011;11197;53.110;8.468;2023-05-19T09:25:54;9.60;;;2.83;;
22064;SDS011;11197;53.110;8.468;2023-05-19T09:28:24;7.00;;;2.72;;
22064;SDS011;11197;53.110;8.468;2023-05-19T09:30:58;9.18;;;2.92;;
22064;SDS011;11197;53.110;8.468;2023-05-19T09:33:26;8.48;;;2.92;;
22064;SDS011;11197;53.110;8.468;2023-05-19T09:35:53;11.30;;;3.20;;
22064;SDS011;11197;53.110;8.468;2023-05-19T09:38:25;8.90;;;2.90;;
22064;SDS011;11197;53.110;8.468;2023-05-19T09:40:52;11.48;;;3.40;;
22064;SDS011;11197;53.110;8.468;2023-05-19T09:43:21;9.38;;;3.42;;
22064;SDS011;11197;53.110;8.468;2023-05-19T09:46:07;8.45;;;3.08;;
22064;SDS011;11197;53.110;8.468;2023-05-19T09:48:37;8.93;;;2.88;;
22064;SDS011;11197;53.110;8.468;2023-05-19T09:51:03;8.45;;;2.63;;
22064;SDS011;11197;53.110;8.468;2023-05-19T09:53:32;10.98;;;3.10;;
22064;SDS011;11197;53.110;8.468;2023-05-19T09:55:59;11.38;;;3.00;;
22064;SDS011;11197;53.110;8.468;2023-05-19T09:58:31;6.72;;;3.20;;
22064;SDS011;11197;53.110;8.468;2023-05-19T10:01:00;7.00;;;3.30;;
22064;SDS011;11197;53.110;8.468;2023-05-19T10:03:28;9.57;;;3.30;;
22064;SDS011;11197;53.110;8.468;2023-05-19T10:05:55;9.68;;;3.17;;
22064;SDS011;11197;53.110;8.468;2023-05-19T10:08:22;12.90;;;3.58;;
22064;SDS011;11197;53.110;8.468;2023-05-19T10:10:50;10.15;;;3.40;;
22064;SDS011;11197;53.110;8.468;2023-05-19T10:13:16;11.80;;;2.97;;
22064;SDS011;11197;53.110;8.468;2023-05-19T10:15:42;9.60;;;2.85;;
22064;SDS011;11197;53.110;8.468;2023-05-19T10:18:09;11.13;;;3.08;;
22064;SDS011;11197;53.110;8.468;2023-05-19T10:20:36;10.35;;;3.15;;
22064;SDS011;11197;53.110;8.468;2023-05-19T10:23:03;6.53;;;2.63;;
22064;SDS011;11197;53.110;8.468;2023-05-19T10:25:30;14.07;;;3.20;;
22064;SDS011;11197;53.110;8.468;2023-05-19T10:27:59;8.88;;;3.17;;
22064;SDS011;11197;53.110;8.468;2023-05-19T10:30:39;8.10;;;3.10;;
22064;SDS011;11197;53.110;8.468;2023-05-19T10:33:14;11.07;;;2.92;;
22064;SDS011;11197;53.110;8.468;2023-05-19T10:44:45;8.30;;;2.30;;
22064;SDS011;11197;53.110;8.468;2023-05-19T10:47:29;10.45;;;2.53;;
22064;SDS011;11197;53.110;8.468;2023-05-19T10:49:58;6.68;;;2.00;;
22064;SDS011;11197;53.110;8.468;2023-05-19T10:52:25;6.45;;;2.08;;
22064;SDS011;11197;53.110;8.468;2023-05-19T10:54:51;7.00;;;2.00;;
22064;SDS011;11197;53.110;8.468;2023-05-19T10:57:19;8.65;;;2.15;;
22064;SDS011;11197;53.110;8.468;2023-05-19T10:59:56;9.88;;;2.13;;
22064;SDS011;11197;53.110;8.468;2023-05-19T11:02:38;7.90;;;2.00;;
22064;SDS011;11197;53.110;8.468;2023-05-19T11:05:09;7.35;;;2.08;;
22064;SDS011;11197;53.110;8.468;2023-05-19T11:07:41;10.02;;;2.10;;
22064;SDS011;11197;53.110;8.468;2023-05-19T11:10:30;11.55;;;2.60;;
22064;SDS011;11197;53.110;8.468;2023-05-19T11:12:56;7.95;;;1.70;;
22064;SDS011;11197;53.110;8.468;2023-05-19T11:15:26;7.43;;;2.13;;
22064;SDS011;11197;53.110;8.468;2023-05-19T11:17:52;6.17;;;2.27;;
22064;SDS011;11197;53.110;8.468;2023-05-19T11:20:28;6.38;;;2.10;;
22064;SDS011;11197;53.110;8.468;2023-05-19T11:25:41;8.00;;;2.35;;
22064;SDS011;11197;53.110;8.468;2023-05-19T11:28:19;6.70;;;1.73;;
22064;SDS011;11197;53.110;8.468;2023-05-19T11:30:53;5.72;;;1.95;;
22064;SDS011;11197;53.110;8.468;2023-05-19T11:33:21;5.50;;;1.60;;
22064;SDS011;11197;53.110;8.468;2023-05-19T11:35:52;5.38;;;2.15;;
22064;SDS011;11197;53.110;8.468;2023-05-19T11:38:19;5.68;;;1.92;;
22064;SDS011;11197;53.110;8.468;2023-05-19T11:40:47;14.98;;;2.30;;
22064;SDS011;11197;53.110;8.468;2023-05-19T11:43:16;5.07;;;1.70;;
22064;SDS011;11197;53.110;8.468;2023-05-19T11:45:42;4.43;;;1.77;;
22064;SDS011;11197;53.110;8.468;2023-05-19T11:48:12;5.38;;;1.65;;
22064;SDS011;11197;53.110;8.468;2023-05-19T11:53:05;7.32;;;1.90;;
22064;SDS011;11197;53.110;8.468;2023-05-19T11:55:31;6.47;;;1.70;;
22064;SDS011;11197;53.110;8.468;2023-05-19T11:57:57;5.35;;;1.70;;
22064;SDS011;11197;53.110;8.468;2023-05-19T12:00:27;8.98;;;1.52;;
22064;SDS011;11197;53.110;8.468;2023-05-19T12:02:54;6.25;;;1.50;;
22064;SDS011;11197;53.110;8.468;2023-05-19T12:05:21;5.00;;;1.60;;
22064;SDS011;11197;53.110;8.468;2023-05-19T12:07:49;6.80;;;2.10;;
22064;SDS011;11197;53.110;8.468;2023-05-19T12:10:25;5.88;;;1.55;;
22064;SDS011;11197;53.110;8.468;2023-05-19T12:12:53;6.05;;;1.70;;
22064;SDS011;11197;53.110;8.468;2023-05-19T12:15:20;4.95;;;1.63;;
22064;SDS011;11197;53.110;8.468;2023-05-19T12:17:50;5.75;;;1.65;;
22064;SDS011;11197;53.110;8.468;2023-05-19T12:20:17;4.03;;;1.80;;
22064;SDS011;11197;53.110;8.468;2023-05-19T12:22:44;7.90;;;1.90;;
22064;SDS011;11197;53.110;8.468;2023-05-19T12:25:12;5.03;;;1.70;;
22064;SDS011;11197;53.110;8.468;2023-05-19T12:27:41;6.05;;;1.90;;
22064;SDS011;11197;53.110;8.468;2023-05-19T12:30:07;7.65;;;2.00;;
22064;SDS011;11197;53.110;8.468;2023-05-19T12:32:34;4.97;;;1.55;;
22064;SDS011;11197;53.110;8.468;2023-05-19T12:35:11;5.07;;;1.80;;
22064;SDS011;11197;53.110;8.468;2023-05-19T12:37:47;5.78;;;1.52;;
22064;SDS011;11197;53.110;8.468;2023-05-19T12:40:55;5.20;;;1.63;;
22064;SDS011;11197;53.110;8.468;2023-05-19T12:43:03;3.60;;;1.45;;
22064;SDS011;11197;53.110;8.468;2023-05-19T12:45:38;6.93;;;1.80;;
22064;SDS011;11197;53.110;8.468;2023-05-19T12:48:12;6.97;;;1.80;;
22064;SDS011;11197;53.110;8.468;2023-05-19T12:50:42;6.07;;;2.13;;
22064;SDS011;11197;53.110;8.468;2023-05-19T12:53:12;5.95;;;1.85;;
22064;SDS011;11197;53.110;8.468;2023-05-19T12:55:40;4.78;;;1.40;;
22064;SDS011;11197;53.110;8.468;2023-05-19T12:58:09;5.05;;;1.58;;
22064;SDS011;11197;53.110;8.468;2023-05-19T13:00:40;4.45;;;1.50;;
22064;SDS011;11197;53.110;8.468;2023-05-19T13:03:12;5.78;;;1.52;;
22064;SDS011;11197;53.110;8.468;2023-05-19T13:05:44;7.80;;;1.70;;
22064;SDS011;11197;53.110;8.468;2023-05-19T13:08:11;7.55;;;1.88;;
22064;SDS011;11197;53.110;8.468;2023-05-19T13:10:40;7.22;;;1.55;;
22064;SDS011;11197;53.110;8.468;2023-05-19T13:13:07;6.32;;;1.88;;
22064;SDS011;11197;53.110;8.468;2023-05-19T13:15:35;6.97;;;1.55;;
22064;SDS011;11197;53.110;8.468;2023-05-19T13:18:03;7.35;;;1.48;;
22064;SDS011;11197;53.110;8.468;2023-05-19T13:20:30;5.50;;;1.52;;
22064;SDS011;11197;53.110;8.468;2023-05-19T13:22:57;5.57;;;1.42;;
22064;SDS011;11197;53.110;8.468;2023-05-19T13:25:23;5.13;;;1.40;;
22064;SDS011;11197;53.110;8.468;2023-05-19T13:27:50;4.50;;;1.63;;
22064;SDS011;11197;53.110;8.468;2023-05-19T13:30:19;4.78;;;1.65;;
22064;SDS011;11197;53.110;8.468;2023-05-19T13:32:46;6.40;;;1.92;;
22064;SDS011;11197;53.110;8.468;2023-05-19T13:35:12;5.88;;;1.60;;
22064;SDS011;11197;53.110;8.468;2023-05-19T13:37:40;5.72;;;1.60;;
22064;SDS011;11197;53.110;8.468;2023-05-19T13:40:06;6.30;;;1.60;;
22064;SDS011;11197;53.110;8.468;2023-05-19T13:42:33;4.47;;;1.40;;
22064;SDS011;11197;53.110;8.468;2023-05-19T13:45:00;7.75;;;1.50;;
22064;SDS011;11197;53.110;8.468;2023-05-19T13:47:27;5.95;;;1.50;;
22064;SDS011;11197;53.110;8.468;2023-05-19T13:49:53;6.15;;;1.45;;
22064;SDS011;11197;53.110;8.468;2023-05-19T13:52:19;6.50;;;1.70;;
22064;SDS011;11197;53.110;8.468;2023-05-19T13:54:46;5.68;;;1.80;;
22064;SDS011;11197;53.110;8.468;2023-05-19T13:57:12;5.88;;;1.63;;
22064;SDS011;11197;53.110;8.468;2023-05-19T13:59:39;5.70;;;1.85;;
22064;SDS011;11197;53.110;8.468;2023-05-19T14:02:05;4.18;;;1.40;;
22064;SDS011;11197;53.110;8.468;2023-05-19T14:04:32;6.65;;;1.48;;
22064;SDS011;11197;53.110;8.468;2023-05-19T14:07:00;7.35;;;2.15;;
22064;SDS011;11197;53.110;8.468;2023-05-19T14:09:26;5.22;;;1.30;;
22064;SDS011;11197;53.110;8.468;2023-05-19T14:11:52;5.32;;;1.50;;
22064;SDS011;11197;53.110;8.468;2023-05-19T14:14:18;4.68;;;1.80;;
22064;SDS011;11197;53.110;8.468;2023-05-19T14:16:44;5.78;;;1.58;;
22064;SDS011;11197;53.110;8.468;2023-05-19T14:19:10;6.15;;;1.70;;
22064;SDS011;11197;53.110;8.468;2023-05-19T14:21:36;6.63;;;1.60;;
22064;SDS011;11197;53.110;8.468;2023-05-19T14:24:02;5.18;;;1.33;;
22064;SDS011;11197;53.110;8.468;2023-05-19T14:26:28;4.38;;;1.40;;
22064;SDS011;11197;53.110;8.468;2023-05-19T14:28:54;5.35;;;1.70;;
22064;SDS011;11197;53.110;8.468;2023-05-19T14:31:21;4.88;;;1.40;;
22064;SDS011;11197;53.110;8.468;2023-05-19T14:33:47;5.82;;;1.30;;
22064;SDS011;11197;53.110;8.468;2023-05-19T14:36:13;4.43;;;1.42;;
22064;SDS011;11197;53.110;8.468;2023-05-19T14:38:39;4.60;;;1.50;;
22064;SDS011;11197;53.110;8.468;2023-05-19T14:41:05;6.55;;;1.42;;
22064;SDS011;11197;53.110;8.468;2023-05-19T14:43:31;8.55;;;1.83;;
22064;SDS011;11197;53.110;8.468;2023-05-19T14:45:57;5.82;;;1.67;;
22064;SDS011;11197;53.110;8.468;2023-05-19T14:48:23;5.90;;;1.50;;
22064;SDS011;11197;53.110;8.468;2023-05-19T14:50:49;6.90;;;1.65;;
22064;SDS011;11197;53.110;8.468;2023-05-19T14:53:15;4.90;;;1.48;;
22064;SDS011;11197;53.110;8.468;2023-05-19T14:55:41;4.35;;;1.33;;
22064;SDS011;11197;53.110;8.468;2023-05-19T14:58:08;3.72;;;1.30;;
22064;SDS011;11197;53.110;8.468;2023-05-19T15:00:34;4.78;;;1.42;;
22064;SDS011;11197;53.110;8.468;2023-05-19T15:03:00;5.35;;;1.70;;
22064;SDS011;11197;53.110;8.468;2023-05-19T15:05:26;6.30;;;1.67;;
22064;SDS011;11197;53.110;8.468;2023-05-19T15:07:52;6.57;;;1.60;;